Time;durP1;ratioP1;P1;durP2;ratioP2;P2;SDS_P1;SDS_P2;PMS_P1;PMS_P2;Temp;Humidity;BMP_temperature;BMP_pressure;BME280_temperature;BME280_humidity;BME280_pressure;Samples;Min_cycle;Max_cycle;Signal;HPM_P1;HPM_P2
2022/03/18 00:01:25;;;;;;;;;;;;;;;5.07;58.06;101731.25;4369296;32;33793;-78
2022/03/18 00:03:52;;;;;;;;;;;;;;;5.12;57.82;101730.12;4377969;32;34057;-78
2022/03/18 00:06:20;;;;;;;;;;;;;;;5.16;57.88;101737.00;4357108;32;32499;-77
2022/03/18 00:08:47;;;;;;;;;;;;;;;5.18;57.83;101731.66;4356740;32;33713;-78
2022/03/18 00:11:15;;;;;;;;;;;;;;;5.23;57.23;101743.75;4369128;32;35431;-78
2022/03/18 00:13:42;;;;;;;;;;;;;;;5.13;57.25;101737.12;4369052;32;33629;-78
2022/03/18 00:16:10;;;;;;;;;;;;;;;5.17;56.93;101743.13;4382856;32;33479;-78
2022/03/18 00:18:38;;;;;;;;;;;;;;;5.13;56.98;101746.81;4356939;32;34980;-78
2022/03/18 00:21:07;;;;;;;;;;;;;;;5.05;57.09;101743.62;4344259;32;34064;-78
2022/03/18 00:23:34;;;;;;;;;;;;;;;4.95;57.13;101744.91;4356805;32;34691;-77
2022/03/18 00:26:02;;;;;;;;;;;;;;;4.89;57.55;101743.38;4372918;32;32548;-78
2022/03/18 00:28:29;;;;;;;;;;;;;;;4.76;58.01;101750.09;4383337;32;36016;-78
2022/03/18 00:30:57;;;;;;;;;;;;;;;4.61;58.62;101750.66;4368868;32;34811;-78
2022/03/18 00:33:25;;;;;;;;;;;;;;;4.38;59.86;101757.75;4369411;32;32752;-78
2022/03/18 00:35:52;;;;;;;;;;;;;;;4.59;59.31;101763.06;4368614;32;33719;-77
2022/03/18 00:38:19;;;;;;;;;;;;;;;4.81;58.69;101765.72;4356880;32;35021;-78
2022/03/18 00:40:50;;;;;;;;;;;;;;;4.73;58.71;101762.53;4381071;32;34999;-78
2022/03/18 00:43:18;;;;;;;;;;;;;;;4.85;58.26;101759.41;4369174;32;32953;-78
2022/03/18 00:45:45;;;;;;;;;;;;;;;4.87;57.95;101761.06;4376885;32;33381;-78
2022/03/18 00:53:45;;;;;;;;;;;;;;;4.63;58.48;101762.00;4372624;32;33984;-81
2022/03/18 00:56:13;;;;;;;;;;;;;;;4.72;58.50;101766.91;4358070;32;33185;-80
2022/03/18 00:58:42;;;;;;;;;;;;;;;4.56;59.13;101764.94;4389120;32;34824;-81
2022/03/18 01:01:10;;;;;;;;;;;;;;;4.59;58.96;101773.59;4399450;32;34396;-81
2022/03/18 01:03:37;;;;;;;;;;;;;;;4.43;59.58;101768.97;4364018;32;33314;-81
2022/03/18 01:06:04;;;;;;;;;;;;;;;4.70;58.56;101771.41;4369100;32;34080;-80
2022/03/18 01:08:32;;;;;;;;;;;;;;;4.51;58.80;101769.56;4381392;32;35407;-81
2022/03/18 01:11:02;;;;;;;;;;;;;;;4.53;59.16;101765.06;4399390;32;34629;-80
2022/03/18 01:13:30;;;;;;;;;;;;;;;4.57;58.82;101769.28;4364801;32;32992;-80
2022/03/18 01:15:57;;;;;;;;;;;;;;;4.64;58.25;101776.91;4374194;32;32359;-80
2022/03/18 01:18:25;;;;;;;;;;;;;;;4.60;57.82;101766.53;4378065;32;35807;-80
2022/03/18 01:20:52;;;;;;;;;;;;;;;4.26;58.71;101766.97;4368968;32;34455;-80
2022/03/18 01:23:20;;;;;;;;;;;;;;;4.45;58.49;101770.62;4378105;32;34028;-80
2022/03/18 01:25:47;;;;;;;;;;;;;;;4.36;58.73;101780.66;4380362;32;33844;-81
2022/03/18 01:28:15;;;;;;;;;;;;;;;4.56;58.03;101780.75;4351339;32;33768;-80
2022/03/18 01:30:43;;;;;;;;;;;;;;;4.46;58.17;101771.50;4381934;32;35554;-80
2022/03/18 01:33:11;;;;;;;;;;;;;;;4.50;57.85;101765.16;4367383;32;32225;-80
2022/03/18 01:35:38;;;;;;;;;;;;;;;4.54;57.55;101769.44;4382465;32;33664;-81
2022/03/18 01:38:06;;;;;;;;;;;;;;;4.29;57.73;101776.53;4374888;32;35230;-81
2022/03/18 01:40:33;;;;;;;;;;;;;;;4.45;57.39;101780.31;4364963;32;33717;-80
2022/03/18 01:43:00;;;;;;;;;;;;;;;4.56;56.93;101772.84;4394514;32;33752;-81
2022/03/18 01:45:28;;;;;;;;;;;;;;;4.61;56.47;101784.09;4376821;32;33530;-80
2022/03/18 01:47:55;;;;;;;;;;;;;;;4.47;56.61;101779.34;4374468;32;34482;-80
2022/03/18 01:50:22;;;;;;;;;;;;;;;4.46;56.66;101780.28;4362611;32;34906;-80
2022/03/18 01:52:50;;;;;;;;;;;;;;;4.51;56.90;101790.63;4363801;32;33149;-81
2022/03/18 01:55:20;;;;;;;;;;;;;;;4.37;57.08;101792.91;4365230;32;34834;-80
2022/03/18 01:57:47;;;;;;;;;;;;;;;4.45;57.39;101790.84;4375925;32;34805;-80
2022/03/18 02:00:15;;;;;;;;;;;;;;;4.33;58.15;101784.25;4357722;32;33333;-80
2022/03/18 02:02:43;;;;;;;;;;;;;;;4.39;57.91;101791.94;4370220;32;32638;-80
2022/03/18 02:05:11;;;;;;;;;;;;;;;4.27;58.13;101794.19;4384297;32;34846;-80
2022/03/18 02:07:38;;;;;;;;;;;;;;;4.34;57.74;101790.41;4357485;32;35212;-80
2022/03/18 02:10:06;;;;;;;;;;;;;;;4.38;56.99;101792.87;4358171;32;35346;-80
2022/03/18 02:12:35;;;;;;;;;;;;;;;3.81;58.88;101800.25;4357828;32;33139;-80
2022/03/18 02:15:03;;;;;;;;;;;;;;;4.16;57.64;101796.34;4369833;32;34258;-80
2022/03/18 02:17:31;;;;;;;;;;;;;;;4.12;57.49;101800.88;4369589;32;35050;-80
2022/03/18 02:19:58;;;;;;;;;;;;;;;4.12;57.30;101792.97;4357947;32;34845;-80
2022/03/18 02:22:26;;;;;;;;;;;;;;;4.00;57.55;101803.06;4357501;32;32710;-80
2022/03/18 02:24:54;;;;;;;;;;;;;;;3.80;57.88;101813.44;4357374;32;34176;-80
2022/03/18 02:27:21;;;;;;;;;;;;;;;3.81;57.85;101820.44;4370302;32;36653;-80
2022/03/18 02:29:49;;;;;;;;;;;;;;;3.90;57.69;101823.63;4383716;32;33324;-80
2022/03/18 02:32:18;;;;;;;;;;;;;;;3.86;57.85;101821.16;4357856;32;33626;-80
2022/03/18 02:34:45;;;;;;;;;;;;;;;3.99;57.55;101820.63;4369905;32;33716;-80
2022/03/18 02:37:13;;;;;;;;;;;;;;;3.76;58.39;101822.34;4382758;32;34509;-80
2022/03/18 02:39:40;;;;;;;;;;;;;;;3.75;58.56;101821.50;4370133;32;35456;-80
2022/03/18 02:42:08;;;;;;;;;;;;;;;3.99;57.89;101822.44;4357762;32;33339;-80
2022/03/18 02:44:35;;;;;;;;;;;;;;;4.07;57.51;101836.19;4369671;32;34947;-80
2022/03/18 02:47:03;;;;;;;;;;;;;;;4.07;57.39;101829.13;4384106;32;35292;-80
2022/03/18 02:49:30;;;;;;;;;;;;;;;3.80;57.85;101831.88;4370059;32;34229;-80
2022/03/18 02:51:58;;;;;;;;;;;;;;;3.63;59.17;101832.47;4358096;32;32613;-80
2022/03/18 02:54:26;;;;;;;;;;;;;;;3.72;59.09;101823.37;4357533;32;34331;-80
2022/03/18 02:56:53;;;;;;;;;;;;;;;3.66;59.64;101842.88;4383601;32;35144;-80
2022/03/18 02:59:20;;;;;;;;;;;;;;;3.43;60.80;101845.38;4357339;32;33328;-80
2022/03/18 03:01:48;;;;;;;;;;;;;;;3.72;59.74;101849.69;4369397;32;34135;-80
2022/03/18 03:04:17;;;;;;;;;;;;;;;3.81;59.24;101857.28;4357413;32;33128;-80
2022/03/18 03:09:31;;;;;;;;;;;;;;;3.68;58.83;101848.09;4383422;32;34999;-80
2022/03/18 03:11:58;;;;;;;;;;;;;;;3.80;58.54;101858.19;4381792;32;33678;-80
2022/03/18 03:14:25;;;;;;;;;;;;;;;3.77;58.67;101861.78;4357122;32;34528;-80
2022/03/18 03:16:54;;;;;;;;;;;;;;;3.83;58.78;101861.59;4357882;32;35242;-80
2022/03/18 03:19:21;;;;;;;;;;;;;;;3.52;60.06;101873.19;4383588;32;34526;-80
2022/03/18 03:21:48;;;;;;;;;;;;;;;3.79;59.46;101867.84;4357563;32;34559;-80
2022/03/18 03:24:16;;;;;;;;;;;;;;;3.83;59.39;101863.34;4369698;32;34288;-80
2022/03/18 03:26:43;;;;;;;;;;;;;;;3.96;58.89;101865.50;4384022;32;35659;-80
2022/03/18 03:29:10;;;;;;;;;;;;;;;3.99;58.54;101870.66;4357427;32;34653;-78
2022/03/18 03:31:38;;;;;;;;;;;;;;;3.96;58.42;101872.56;4369143;32;32707;-78
2022/03/18 03:34:05;;;;;;;;;;;;;;;3.97;58.22;101879.56;4357784;32;33647;-77
2022/03/18 03:36:33;;;;;;;;;;;;;;;4.00;57.97;101885.59;4381993;32;34357;-77
2022/03/18 03:39:00;;;;;;;;;;;;;;;3.91;58.11;101899.06;4370041;32;35568;-77
2022/03/18 03:41:27;;;;;;;;;;;;;;;4.06;57.73;101903.78;4369654;32;33897;-77
2022/03/18 03:43:55;;;;;;;;;;;;;;;4.03;57.52;101900.38;4357159;32;32769;-77
2022/03/18 03:46:22;;;;;;;;;;;;;;;3.97;57.47;101901.47;4383401;32;36186;-78
2022/03/18 03:48:50;;;;;;;;;;;;;;;4.12;56.93;101905.34;4369565;32;34326;-78
2022/03/18 03:51:17;;;;;;;;;;;;;;;3.82;57.59;101911.66;4356980;32;33469;-78
2022/03/18 03:53:45;;;;;;;;;;;;;;;3.93;56.53;101906.88;4380997;32;32234;-78
2022/03/18 03:56:12;;;;;;;;;;;;;;;3.92;56.32;101913.06;4357019;32;35992;-78
2022/03/18 03:58:39;;;;;;;;;;;;;;;4.04;56.11;101921.41;4371589;32;34748;-78
2022/03/18 04:01:07;;;;;;;;;;;;;;;4.05;56.10;101925.78;4360977;32;33143;-77
2022/03/18 04:03:35;;;;;;;;;;;;;;;3.99;56.17;101927.75;4373459;32;34784;-77
2022/03/18 04:06:02;;;;;;;;;;;;;;;3.87;55.34;101929.03;4379136;32;34244;-78
2022/03/18 04:08:30;;;;;;;;;;;;;;;4.06;54.58;101926.66;4359951;32;33709;-78
2022/03/18 04:10:57;;;;;;;;;;;;;;;4.06;54.26;101932.75;4374594;32;33222;-79
2022/03/18 04:13:25;;;;;;;;;;;;;;;4.22;53.56;101931.31;4365506;32;34403;-79
2022/03/18 04:15:52;;;;;;;;;;;;;;;4.23;53.50;101940.94;4391369;32;34899;-79
2022/03/18 04:18:19;;;;;;;;;;;;;;;4.32;53.30;101937.12;4375600;32;34039;-79
2022/03/18 04:20:47;;;;;;;;;;;;;;;4.39;53.26;101943.91;4374676;32;33518;-79
2022/03/18 04:23:14;;;;;;;;;;;;;;;4.39;53.21;101934.25;4374046;32;33429;-79
2022/03/18 04:25:42;;;;;;;;;;;;;;;4.41;53.25;101947.34;4366918;32;34807;-79
2022/03/18 04:28:09;;;;;;;;;;;;;;;4.33;53.35;101950.25;4366121;32;33615;-79
2022/03/18 04:30:36;;;;;;;;;;;;;;;4.46;53.13;101950.69;4376954;32;32413;-79
2022/03/18 04:33:04;;;;;;;;;;;;;;;4.46;53.04;101948.94;4360790;32;34637;-79
2022/03/18 04:35:32;;;;;;;;;;;;;;;4.35;53.09;101953.69;4351226;32;34988;-79
2022/03/18 04:37:59;;;;;;;;;;;;;;;4.37;52.80;101951.00;4361681;32;35454;-79
2022/03/18 04:40:27;;;;;;;;;;;;;;;4.43;52.50;101956.94;4367009;32;33334;-79
2022/03/18 04:42:54;;;;;;;;;;;;;;;4.49;52.36;101959.34;4374595;32;34337;-79
2022/03/18 04:45:22;;;;;;;;;;;;;;;4.50;52.02;101965.47;4360384;32;35205;-79
2022/03/18 04:47:56;;;;;;;;;;;;;;;4.43;52.54;101972.72;4379291;32;34112;-80
2022/03/18 04:50:23;;;;;;;;;;;;;;;4.55;52.15;101967.03;4379694;32;32974;-79
2022/03/18 04:52:50;;;;;;;;;;;;;;;4.50;51.65;101976.88;4374712;32;33561;-79
2022/03/18 04:55:18;;;;;;;;;;;;;;;4.55;50.68;101982.00;4379258;32;34830;-79
2022/03/18 04:57:45;;;;;;;;;;;;;;;4.50;50.58;101986.56;4378211;32;34743;-79
2022/03/18 05:00:13;;;;;;;;;;;;;;;4.57;49.83;101982.78;4361560;32;33426;-79
2022/03/18 05:02:41;;;;;;;;;;;;;;;4.60;49.05;101993.22;4371239;32;32416;-79
2022/03/18 05:05:08;;;;;;;;;;;;;;;4.49;49.91;101996.25;4350722;32;33380;-79
2022/03/18 05:07:38;;;;;;;;;;;;;;;4.46;49.69;102000.75;4391865;32;33703;-79
2022/03/18 05:10:07;;;;;;;;;;;;;;;4.33;47.65;102000.31;4380201;32;33561;-79
2022/03/18 05:12:34;;;;;;;;;;;;;;;4.64;46.18;101989.59;4371198;32;34013;-79
2022/03/18 05:15:02;;;;;;;;;;;;;;;4.49;46.53;102006.78;4373667;32;35228;-79
2022/03/18 05:17:29;;;;;;;;;;;;;;;4.80;44.84;102010.06;4358711;32;35369;-79
2022/03/18 05:20:01;;;;;;;;;;;;;;;4.67;45.59;102006.16;4393064;32;33401;-79
2022/03/18 05:22:28;;;;;;;;;;;;;;;4.46;47.40;102017.44;4363411;32;34343;-79
2022/03/18 05:24:56;;;;;;;;;;;;;;;4.36;45.75;102021.28;4369392;32;35034;-79
2022/03/18 05:27:23;;;;;;;;;;;;;;;4.74;44.12;102012.94;4369600;32;34491;-79
2022/03/18 05:29:51;;;;;;;;;;;;;;;4.85;44.24;102009.91;4377693;32;33933;-79
2022/03/18 05:32:19;;;;;;;;;;;;;;;4.84;41.57;102011.69;4371976;32;33376;-79
2022/03/18 05:34:46;;;;;;;;;;;;;;;4.91;43.08;102017.59;4373762;32;34733;-80
2022/03/18 05:37:13;;;;;;;;;;;;;;;5.00;42.03;102019.91;4371856;32;35166;-79
2022/03/18 05:39:41;;;;;;;;;;;;;;;5.09;41.09;102020.44;4362351;32;33611;-79
2022/03/18 05:42:09;;;;;;;;;;;;;;;4.91;40.88;102023.72;4370738;32;33568;-79
2022/03/18 05:44:36;;;;;;;;;;;;;;;4.40;42.51;102035.22;4361961;32;35101;-80
2022/03/18 05:47:04;;;;;;;;;;;;;;;4.40;41.71;102032.59;4375132;32;34438;-79
2022/03/18 05:49:32;;;;;;;;;;;;;;;4.34;41.90;102036.28;4372846;32;33077;-80
2022/03/18 05:51:59;;;;;;;;;;;;;;;4.51;41.57;102033.09;4373768;32;34650;-80
2022/03/18 05:54:26;;;;;;;;;;;;;;;4.27;42.23;102040.03;4390425;32;35157;-79
2022/03/18 05:56:54;;;;;;;;;;;;;;;4.32;42.14;102045.16;4365324;32;32692;-83
2022/03/18 05:59:22;;;;;;;;;;;;;;;4.42;41.81;102046.59;4361031;32;32958;-84
2022/03/18 06:01:54;;;;;;;;;;;;;;;4.44;41.79;102053.50;4395424;32;33987;-80
2022/03/18 06:07:37;;;;;;;;;;;;;;;4.44;41.71;102052.66;4406745;27;35185;-81
2022/03/18 06:12:52;;;;;;;;;;;;;;;4.42;41.74;102060.63;4413360;32;34117;-82
2022/03/18 06:15:20;;;;;;;;;;;;;;;4.50;41.52;102065.62;4387788;32;33550;-85
2022/03/18 06:17:47;;;;;;;;;;;;;;;4.59;41.94;102057.41;4400466;32;34161;-83
2022/03/18 06:20:15;;;;;;;;;;;;;;;4.52;40.99;102061.19;4400579;32;33181;-85
2022/03/18 06:22:43;;;;;;;;;;;;;;;4.57;41.30;102067.16;4401138;32;34275;-84
2022/03/18 06:25:10;;;;;;;;;;;;;;;4.69;41.15;102066.72;4400119;32;34904;-83
2022/03/18 06:27:38;;;;;;;;;;;;;;;4.90;40.69;102066.84;4388001;32;32659;-83
2022/03/18 06:30:06;;;;;;;;;;;;;;;5.06;40.97;102075.06;4400797;32;33849;-84
2022/03/18 06:32:33;;;;;;;;;;;;;;;5.28;39.77;102073.41;4400169;32;33334;-84
2022/03/18 06:35:01;;;;;;;;;;;;;;;5.13;41.36;102074.81;4382598;32;34109;-84
2022/03/18 06:37:30;;;;;;;;;;;;;;;5.23;39.43;102081.47;4401913;32;33050;-84
2022/03/18 06:39:57;;;;;;;;;;;;;;;4.81;40.89;102090.91;4413082;32;31858;-83
2022/03/18 06:42:25;;;;;;;;;;;;;;;5.11;41.13;102087.22;4387355;32;33166;-85
2022/03/18 06:44:53;;;;;;;;;;;;;;;5.11;39.78;102078.41;4401164;32;35794;-84
2022/03/18 06:47:21;;;;;;;;;;;;;;;5.04;39.64;102090.09;4400278;32;34714;-84
2022/03/18 06:49:48;;;;;;;;;;;;;;;5.22;39.82;102087.69;4414602;32;33059;-84
2022/03/18 06:52:16;;;;;;;;;;;;;;;5.21;39.54;102095.63;4375039;32;32676;-84
2022/03/18 06:54:43;;;;;;;;;;;;;;;5.49;39.72;102089.31;4400741;32;34950;-84
2022/03/18 06:57:12;;;;;;;;;;;;;;;5.53;38.84;102096.19;4413047;32;33628;-84
2022/03/18 06:59:40;;;;;;;;;;;;;;;5.43;39.91;102090.38;4400391;32;32642;-84
2022/03/18 07:02:08;;;;;;;;;;;;;;;5.77;38.40;102103.19;4401069;32;34609;-84
2022/03/18 07:04:36;;;;;;;;;;;;;;;5.60;37.94;102105.59;4412423;32;34020;-85
2022/03/18 07:07:04;;;;;;;;;;;;;;;5.55;38.05;102103.12;4400291;32;34606;-85
2022/03/18 07:09:32;;;;;;;;;;;;;;;5.69;38.10;102102.62;4414533;32;32563;-83
2022/03/18 07:12:00;;;;;;;;;;;;;;;5.49;38.43;102102.50;4387840;32;33291;-84
2022/03/18 07:14:28;;;;;;;;;;;;;;;5.54;38.89;102109.34;4400195;32;34379;-85
2022/03/18 07:19:43;;;;;;;;;;;;;;;5.29;39.20;102114.69;4414488;32;33683;-83
2022/03/18 07:22:11;;;;;;;;;;;;;;;5.59;38.23;102123.22;4398858;32;35140;-84
2022/03/18 07:24:39;;;;;;;;;;;;;;;5.43;38.48;102115.94;4387488;32;33449;-85
2022/03/18 07:27:07;;;;;;;;;;;;;;;5.83;37.99;102127.63;4414801;32;34757;-84
2022/03/18 07:29:35;;;;;;;;;;;;;;;6.21;37.48;102127.00;4412501;32;33805;-84
2022/03/18 07:32:03;;;;;;;;;;;;;;;6.16;38.49;102128.09;4400317;32;34058;-84
2022/03/18 07:34:31;;;;;;;;;;;;;;;6.67;36.73;102132.16;4400177;32;36141;-86
2022/03/18 07:36:59;;;;;;;;;;;;;;;6.43;36.88;102129.66;4414297;32;35018;-85
2022/03/18 07:39:27;;;;;;;;;;;;;;;6.42;36.84;102131.41;4397003;32;33799;-84
2022/03/18 07:41:54;;;;;;;;;;;;;;;6.31;37.03;102136.28;4399204;32;34107;-85
2022/03/18 07:44:22;;;;;;;;;;;;;;;5.77;37.75;102150.75;4412168;32;34797;-83
2022/03/18 07:46:50;;;;;;;;;;;;;;;6.01;37.91;102153.34;4398685;32;34466;-84
2022/03/18 07:49:18;;;;;;;;;;;;;;;6.03;37.43;102155.91;4398873;32;33346;-84
2022/03/18 07:51:45;;;;;;;;;;;;;;;6.34;36.82;102156.47;4399077;32;34276;-84
2022/03/18 07:54:13;;;;;;;;;;;;;;;6.27;38.06;102165.53;4399450;32;34897;-84
2022/03/18 07:56:40;;;;;;;;;;;;;;;6.67;35.60;102163.03;4393730;32;34363;-83
2022/03/18 07:59:07;;;;;;;;;;;;;;;6.34;36.99;102167.88;4397000;32;33672;-83
2022/03/18 08:01:38;;;;;;;;;;;;;;;6.38;37.01;102166.84;4409634;32;34783;-84
2022/03/18 08:04:08;;;;;;;;;;;;;;;6.32;36.76;102171.50;4410703;32;35362;-83
2022/03/18 08:06:36;;;;;;;;;;;;;;;6.13;37.93;102174.00;4398972;32;34031;-83
2022/03/18 08:09:03;;;;;;;;;;;;;;;6.31;37.48;102168.00;4380482;32;33485;-82
2022/03/18 08:11:31;;;;;;;;;;;;;;;6.61;36.66;102169.41;4398800;32;34048;-83
2022/03/18 08:13:59;;;;;;;;;;;;;;;6.71;36.07;102173.41;4410022;32;35859;-83
2022/03/18 08:16:27;;;;;;;;;;;;;;;6.75;35.91;102166.22;4397746;32;34974;-82
2022/03/18 08:18:57;;;;;;;;;;;;;;;6.66;36.39;102178.03;4410635;32;33265;-83
2022/03/18 08:21:25;;;;;;;;;;;;;;;6.56;36.62;102173.19;4410789;32;34515;-82
2022/03/18 08:23:52;;;;;;;;;;;;;;;6.89;36.26;102183.25;4410464;32;34651;-81
2022/03/18 08:26:20;;;;;;;;;;;;;;;6.96;36.58;102191.78;4385450;32;33907;-82
2022/03/18 08:28:47;;;;;;;;;;;;;;;7.20;36.24;102181.03;4398214;32;33665;-84
2022/03/18 08:31:15;;;;;;;;;;;;;;;6.98;37.54;102187.31;4398464;32;33804;-83
2022/03/18 08:33:43;;;;;;;;;;;;;;;7.26;36.53;102186.06;4397523;32;35140;-83
2022/03/18 08:36:10;;;;;;;;;;;;;;;7.60;35.43;102193.41;4410780;32;33446;-85
2022/03/18 08:38:40;;;;;;;;;;;;;;;7.61;34.88;102192.47;4384061;32;32432;-85
2022/03/18 08:41:08;;;;;;;;;;;;;;;7.61;35.73;102198.63;4410712;32;33540;-84
2022/03/18 08:43:36;;;;;;;;;;;;;;;7.75;35.94;102190.06;4385324;32;34231;-85
2022/03/18 08:46:03;;;;;;;;;;;;;;;7.66;35.92;102203.72;4397073;32;34267;-85
2022/03/18 08:48:31;;;;;;;;;;;;;;;7.53;36.40;102206.06;4410542;32;33836;-85
2022/03/18 08:50:59;;;;;;;;;;;;;;;7.32;36.92;102214.06;4394543;32;34067;-85
2022/03/18 08:53:27;;;;;;;;;;;;;;;7.48;37.56;102207.19;4397775;32;34597;-85
2022/03/18 08:55:56;;;;;;;;;;;;;;;7.78;37.49;102206.69;4397988;32;34810;-83
2022/03/18 08:58:24;;;;;;;;;;;;;;;7.94;36.26;102207.72;4385107;32;32641;-83
2022/03/18 09:00:52;;;;;;;;;;;;;;;7.90;36.65;102211.44;4410066;32;33603;-82
2022/03/18 09:03:20;;;;;;;;;;;;;;;7.75;36.66;102214.75;4384076;32;34628;-81
2022/03/18 09:05:48;;;;;;;;;;;;;;;8.29;37.01;102216.75;4397792;32;34933;-84
2022/03/18 09:08:15;;;;;;;;;;;;;;;8.63;35.47;102217.75;4396815;32;33217;-84
2022/03/18 09:10:43;;;;;;;;;;;;;;;8.92;34.41;102215.41;4385073;32;33545;-84
2022/03/18 09:13:11;;;;;;;;;;;;;;;8.91;34.53;102218.12;4400242;32;35338;-84
2022/03/18 09:15:38;;;;;;;;;;;;;;;8.74;34.73;102226.03;4414055;32;34068;-84
2022/03/18 09:18:06;;;;;;;;;;;;;;;8.70;35.01;102219.16;4387808;32;32815;-82
2022/03/18 09:20:34;;;;;;;;;;;;;;;8.36;35.76;102218.16;4410846;32;33910;-84
2022/03/18 09:23:04;;;;;;;;;;;;;;;8.41;35.72;102219.69;4412252;32;34009;-82
2022/03/18 09:25:34;;;;;;;;;;;;;;;8.47;36.84;102231.81;4413932;32;33957;-85
2022/03/18 09:28:03;;;;;;;;;;;;;;;8.57;37.05;102233.94;4385205;32;33621;-82
2022/03/18 09:30:50;;;;;;;;;;;;;;;9.02;35.44;102234.38;4402440;32;34360;-82
2022/03/18 09:33:18;;;;;;;;;;;;;;;8.93;35.34;102237.47;4386329;32;34345;-83
2022/03/18 09:35:45;;;;;;;;;;;;;;;9.20;35.68;102231.69;4386166;32;32445;-81
2022/03/18 09:38:13;;;;;;;;;;;;;;;8.94;37.23;102232.09;4412531;32;33157;-81
2022/03/18 09:40:40;;;;;;;;;;;;;;;8.89;36.04;102230.63;4397253;32;33656;-82
2022/03/18 09:43:35;;;;;;;;;;;;;;;9.06;36.67;102231.50;4413426;32;35853;-84
2022/03/18 09:46:03;;;;;;;;;;;;;;;9.38;36.12;102230.72;4399522;32;34441;-85
2022/03/18 09:48:51;;;;;;;;;;;;;;;9.36;36.84;102229.94;4411769;32;33187;-83
2022/03/18 09:51:19;;;;;;;;;;;;;;;9.51;37.23;102225.66;4386805;32;33596;-82
2022/03/18 09:54:07;;;;;;;;;;;;;;;9.54;38.29;102229.00;4410134;32;33185;-83
2022/03/18 09:56:35;;;;;;;;;;;;;;;9.54;39.48;102222.84;4411601;32;34167;-82
2022/03/18 09:59:02;;;;;;;;;;;;;;;9.81;38.76;102229.38;4412290;32;33610;-83
2022/03/18 10:01:30;;;;;;;;;;;;;;;10.02;38.30;102223.81;4412902;32;33495;-82
2022/03/18 10:04:06;;;;;;;;;;;;;;;9.79;39.05;102233.91;4400565;32;35202;-83
2022/03/18 10:06:34;;;;;;;;;;;;;;;10.50;38.10;102228.25;4414826;32;34650;-84
2022/03/18 10:09:02;;;;;;;;;;;;;;;10.65;37.24;102225.59;4389771;32;33402;-83
2022/03/18 10:11:33;;;;;;;;;;;;;;;10.46;38.28;102234.72;4415392;32;34517;-86
2022/03/18 10:14:02;;;;;;;;;;;;;;;10.51;37.17;102236.16;4387510;32;35286;-83
2022/03/18 10:16:31;;;;;;;;;;;;;;;10.89;36.46;102234.88;4409333;32;34781;-83
2022/03/18 10:18:59;;;;;;;;;;;;;;;10.91;37.71;102232.97;4386819;32;31331;-83
2022/03/18 10:21:28;;;;;;;;;;;;;;;10.86;39.85;102232.34;4398302;32;35984;-84
2022/03/18 10:24:06;;;;;;;;;;;;;;;10.72;40.28;102234.97;4386975;32;35016;-83
2022/03/18 10:26:35;;;;;;;;;;;;;;;10.88;39.89;102238.47;4412948;32;35549;-84
2022/03/18 10:29:03;;;;;;;;;;;;;;;11.03;39.64;102240.25;4399525;32;31962;-82
2022/03/18 10:31:31;;;;;;;;;;;;;;;11.16;38.73;102233.28;4386173;32;33549;-82
2022/03/18 10:37:12;;;;;;;;;;;;;;;11.25;39.93;102234.53;4411500;32;34069;-82
2022/03/18 10:39:45;;;;;;;;;;;;;;;11.09;41.33;102229.25;4412513;32;33225;-82
2022/03/18 10:42:15;;;;;;;;;;;;;;;11.46;40.22;102228.81;4398317;32;34791;-83
2022/03/18 10:44:45;;;;;;;;;;;;;;;11.82;38.33;102238.12;4398948;32;34326;-82
2022/03/18 10:47:26;;;;;;;;;;;;;;;11.81;37.34;102228.44;4399802;32;34343;-83
2022/03/18 10:50:14;;;;;;;;;;;;;;;11.68;38.01;102226.59;4414223;32;32919;-82
2022/03/18 10:52:49;;;;;;;;;;;;;;;10.98;38.91;102234.34;4399647;32;34878;-82
2022/03/18 10:55:46;;;;;;;;;;;;;;;10.83;39.10;102229.00;4402619;32;35038;-82
2022/03/18 10:58:16;;;;;;;;;;;;;;;11.18;38.80;102228.72;4400787;32;33774;-82
2022/03/18 11:00:44;;;;;;;;;;;;;;;11.34;38.56;102232.22;4412665;32;33730;-84
2022/03/18 11:03:15;;;;;;;;;;;;;;;11.25;38.79;102231.88;4414419;32;33890;-84
2022/03/18 11:05:46;;;;;;;;;;;;;;;11.51;38.15;102227.59;4400116;32;36072;-84
2022/03/18 11:08:17;;;;;;;;;;;;;;;11.81;38.03;102230.25;4411032;32;33809;-85
2022/03/18 11:13:41;;;;;;;;;;;;;;;11.72;38.00;102233.47;4411949;32;35033;-82
2022/03/18 11:16:09;;;;;;;;;;;;;;;11.68;38.70;102224.81;4412425;32;34734;-85
2022/03/18 11:18:37;;;;;;;;;;;;;;;11.91;37.36;102229.56;4395408;32;35293;-84
2022/03/18 11:21:06;;;;;;;;;;;;;;;11.72;37.83;102221.00;4413088;32;32344;-84
2022/03/18 11:23:34;;;;;;;;;;;;;;;11.78;38.47;102225.97;4411447;32;34451;-83
2022/03/18 11:26:01;;;;;;;;;;;;;;;12.07;39.96;102222.34;4386706;32;34061;-87
2022/03/18 11:28:30;;;;;;;;;;;;;;;12.18;37.28;102219.87;4386007;32;33052;-87
2022/03/18 11:31:04;;;;;;;;;;;;;;;11.81;38.22;102217.75;4399869;32;33050;-85
2022/03/18 11:33:34;;;;;;;;;;;;;;;11.78;38.89;102219.75;4396858;32;34698;-87
2022/03/18 11:36:02;;;;;;;;;;;;;;;11.96;37.81;102213.28;4385682;32;33457;-86
2022/03/18 11:38:51;;;;;;;;;;;;;;;11.90;39.17;102217.19;4411077;32;33469;-87
2022/03/18 11:41:20;;;;;;;;;;;;;;;12.23;37.97;102215.12;4401421;32;34086;-86
2022/03/18 11:43:53;;;;;;;;;;;;;;;12.49;37.37;102203.63;4400629;32;33836;-85
2022/03/18 11:46:23;;;;;;;;;;;;;;;12.28;38.18;102212.16;4397366;32;35436;-86
2022/03/18 11:48:57;;;;;;;;;;;;;;;12.26;38.38;102209.56;4411036;32;34428;-86
2022/03/18 11:51:44;;;;;;;;;;;;;;;12.16;39.04;102212.91;4398463;32;32384;-86
2022/03/18 11:54:16;;;;;;;;;;;;;;;12.01;39.64;102205.88;4411518;32;33824;-85
2022/03/18 11:56:54;;;;;;;;;;;;;;;12.25;38.01;102205.19;4386828;32;33734;-86
2022/03/18 11:59:28;;;;;;;;;;;;;;;11.88;39.50;102202.22;4386194;32;32465;-86
2022/03/18 12:02:01;;;;;;;;;;;;;;;12.03;40.42;102207.47;4397801;32;33150;-85
2022/03/18 12:04:36;;;;;;;;;;;;;;;12.22;39.22;102202.72;4411837;32;33348;-85
2022/03/18 12:07:07;;;;;;;;;;;;;;;12.66;38.26;102192.72;4413050;32;34594;-86
2022/03/18 12:09:56;;;;;;;;;;;;;;;12.91;37.12;102197.28;4411006;32;34803;-87
2022/03/18 12:12:30;;;;;;;;;;;;;;;12.49;38.85;102192.09;4400529;32;34040;-84
2022/03/18 12:15:08;;;;;;;;;;;;;;;13.12;37.32;102186.06;4386880;32;32261;-85
2022/03/18 12:17:47;;;;;;;;;;;;;;;13.36;36.48;102178.22;4413415;32;35327;-85
2022/03/18 12:20:20;;;;;;;;;;;;;;;13.08;37.01;102187.25;4414165;32;34597;-85
2022/03/18 12:22:48;;;;;;;;;;;;;;;13.11;37.37;102180.84;4412367;32;34195;-85
2022/03/18 12:25:16;;;;;;;;;;;;;;;13.16;38.03;102179.59;4412430;32;34423;-84
2022/03/18 12:27:51;;;;;;;;;;;;;;;13.70;36.42;102170.44;4399289;32;34635;-84
2022/03/18 12:30:21;;;;;;;;;;;;;;;14.51;34.75;102162.75;4436947;27;35016;-80
2022/03/18 12:32:56;;;;;;;;;;;;;;;15.24;34.16;102158.09;4382221;32;33354;-81
2022/03/18 12:35:38;;;;;;;;;;;;;;;16.20;32.71;102148.59;4388746;32;34452;-81
2022/03/18 12:38:21;;;;;;;;;;;;;;;16.55;31.38;102152.00;4367335;32;35005;-81
2022/03/18 12:40:57;;;;;;;;;;;;;;;17.27;30.17;102140.47;4381181;32;33595;-81
2022/03/18 12:43:29;;;;;;;;;;;;;;;17.38;30.73;102137.78;4377236;32;32644;-80
2022/03/18 12:45:57;;;;;;;;;;;;;;;17.43;28.79;102140.91;4378056;32;33779;-80
2022/03/18 12:48:26;;;;;;;;;;;;;;;17.19;31.31;102142.13;4396245;32;35188;-81
2022/03/18 12:50:56;;;;;;;;;;;;;;;17.03;29.98;102142.56;4385419;32;34278;-80
2022/03/18 12:53:26;;;;;;;;;;;;;;;16.61;30.60;102145.28;4388071;32;33204;-81
2022/03/18 12:55:58;;;;;;;;;;;;;;;16.17;31.97;102134.56;4388670;32;33675;-81
2022/03/18 12:58:27;;;;;;;;;;;;;;;16.37;31.52;102133.84;4386212;32;34995;-82
2022/03/18 13:00:56;;;;;;;;;;;;;;;16.59;32.71;102131.97;4383429;32;34424;-80
2022/03/18 13:03:29;;;;;;;;;;;;;;;17.33;30.28;102131.87;4386821;32;34219;-82
2022/03/18 13:06:11;;;;;;;;;;;;;;;17.13;30.66;102132.72;4383238;32;33803;-84
2022/03/18 13:09:03;;;;;;;;;;;;;;;17.63;28.67;102121.19;4384062;32;36347;-84
2022/03/18 13:11:38;;;;;;;;;;;;;;;16.94;29.77;102127.19;4359086;32;33391;-83
2022/03/18 13:14:06;;;;;;;;;;;;;;;17.05;29.95;102124.44;4375971;32;32970;-83
2022/03/18 13:16:35;;;;;;;;;;;;;;;16.46;30.41;102127.72;4374118;32;33691;-83
2022/03/18 13:19:05;;;;;;;;;;;;;;;16.76;32.61;102120.66;4390336;32;35282;-83